Time;durP1;ratioP1;P1;durP2;ratioP2;P2;SDS_P1;SDS_P2;PMS_P1;PMS_P2;Temp;Humidity;BMP_temperature;BMP_pressure;BME280_temperature;BME280_humidity;BME280_pressure;Samples;Min_cycle;Max_cycle;Signal;HPM_P1;HPM_P2
2022/05/12 00:00:27;;;;;;;7.95;5.70;;;;;;;14.02;86.25;100400.06;4455141;32;20456;-65
2022/05/12 00:02:54;;;;;;;10.77;5.35;;;;;;;13.97;87.11;100396.66;4455241;32;20101;-65
2022/05/12 00:05:22;;;;;;;8.13;5.65;;;;;;;13.92;87.07;100403.84;4455235;32;20519;-65
2022/05/12 00:07:50;;;;;;;6.43;5.80;;;;;;;13.83;87.23;100408.47;4455108;32;20145;-65
2022/05/12 00:10:22;;;;;;;11.30;6.75;;;;;;;13.78;86.60;100405.06;4455130;32;20172;-65
2022/05/12 00:13:09;;;;;;;6.57;5.78;;;;;;;13.83;84.95;100399.66;4454808;32;20551;-65
2022/05/12 00:15:37;;;;;;;9.20;5.72;;;;;;;13.93;84.91;100390.56;4455213;32;20101;-65
2022/05/12 00:18:08;;;;;;;11.55;5.82;;;;;;;13.90;84.53;100395.94;4440643;32;20080;-65
2022/05/12 00:20:39;;;;;;;14.55;5.90;;;;;;;13.92;86.87;100390.59;4455314;32;20362;-65
2022/05/12 00:23:18;;;;;;;7.32;5.80;;;;;;;13.90;86.03;100393.28;4455239;32;20135;-65
2022/05/12 00:25:47;;;;;;;6.70;6.00;;;;;;;13.85;87.80;100384.56;4454968;32;20146;-65
2022/05/12 00:28:19;;;;;;;6.72;5.50;;;;;;;13.74;88.12;100389.28;4454998;32;20148;-65
2022/05/12 00:30:49;;;;;;;7.03;6.07;;;;;;;13.79;85.70;100390.06;4455249;32;20089;-65
2022/05/12 00:33:19;;;;;;;7.72;6.60;;;;;;;13.77;87.73;100384.78;4455082;32;20179;-65
2022/05/12 00:35:47;;;;;;;7.15;6.45;;;;;;;13.73;88.58;100377.81;4454970;32;20092;-65
2022/05/12 00:38:15;;;;;;;7.20;5.70;;;;;;;13.68;89.55;100382.38;4454905;32;20398;-65
2022/05/12 00:40:44;;;;;;;7.30;5.93;;;;;;;13.80;86.31;100378.53;4454994;32;20108;-65
2022/05/12 00:43:39;;;;;;;9.32;6.40;;;;;;;13.74;89.46;100376.03;4455013;32;20139;-65
2022/05/12 00:46:22;;;;;;;10.15;6.60;;;;;;;13.74;87.87;100376.91;4454875;32;20596;-65
2022/05/12 00:48:50;;;;;;;10.57;6.15;;;;;;;13.77;87.44;100381.25;4454957;32;20151;-65
2022/05/12 00:51:22;;;;;;;8.35;6.35;;;;;;;13.84;86.21;100377.56;4455072;32;20119;-65
2022/05/12 00:53:52;;;;;;;9.05;6.55;;;;;;;13.70;89.07;100380.53;4454916;32;20089;-65
2022/05/12 00:56:22;;;;;;;11.93;7.60;;;;;;;13.56;91.19;100398.53;4454961;32;20096;-65
2022/05/12 00:58:55;;;;;;;12.70;7.03;;;;;;;13.62;88.99;100391.31;4454968;32;20084;-65
2022/05/12 01:01:22;;;;;;;10.60;6.53;;;;;;;13.59;90.53;100394.03;4455045;32;20698;-65
2022/05/12 01:03:49;;;;;;;12.65;6.90;;;;;;;13.52;91.16;100386.28;4454635;32;20096;-65
2022/05/12 01:06:17;;;;;;;8.18;6.57;;;;;;;13.43;92.21;100386.50;4454821;32;20120;-65
2022/05/12 01:08:45;;;;;;;8.93;7.45;;;;;;;13.37;92.60;100383.09;4454986;32;20837;-65
2022/05/12 01:11:16;;;;;;;12.80;6.55;;;;;;;13.43;92.08;100386.50;4454743;32;20346;-65
2022/05/12 01:13:55;;;;;;;7.47;6.65;;;;;;;13.34;91.96;100377.88;4454747;32;20093;-65
2022/05/12 01:16:47;;;;;;;8.63;6.95;;;;;;;13.27;92.21;100389.50;4454711;32;20112;-65
2022/05/12 01:19:31;;;;;;;9.52;6.85;;;;;;;13.23;92.40;100390.44;4440254;32;20145;-65
2022/05/12 01:21:59;;;;;;;8.52;6.60;;;;;;;13.09;94.10;100389.91;4454736;32;20081;-65
2022/05/12 01:24:42;;;;;;;13.20;7.47;;;;;;;12.99;94.89;100399.78;4454623;32;20140;-65
2022/05/12 01:27:20;;;;;;;7.53;6.78;;;;;;;12.91;95.50;100401.75;4454622;32;20487;-65
2022/05/12 01:29:48;;;;;;;10.02;6.87;;;;;;;12.89;95.30;100395.59;4454575;32;20123;-65
2022/05/12 01:32:17;;;;;;;11.48;7.22;;;;;;;12.87;95.36;100393.00;4454609;32;20084;-65
2022/05/12 01:34:46;;;;;;;9.80;6.90;;;;;;;13.01;94.23;100394.50;4454668;32;20108;-65
2022/05/12 01:37:13;;;;;;;6.65;5.75;;;;;;;12.93;94.99;100397.28;4453823;32;20681;-65
2022/05/12 01:39:41;;;;;;;9.48;7.50;;;;;;;12.90;94.28;100389.44;4454494;32;20167;-65
2022/05/12 01:42:09;;;;;;;8.98;6.95;;;;;;;12.81;95.64;100390.47;4454525;32;20104;-65
2022/05/12 01:44:37;;;;;;;9.38;7.25;;;;;;;12.79;95.28;100391.41;4454470;32;20175;-65
2022/05/12 01:47:06;;;;;;;8.30;6.95;;;;;;;12.77;95.46;100393.22;4454399;32;20485;-65
2022/05/12 01:49:33;;;;;;;9.32;6.85;;;;;;;12.73;96.06;100392.44;4454599;32;20145;-65
2022/05/12 01:52:02;;;;;;;10.27;7.32;;;;;;;12.70;96.82;100395.12;4454435;32;20544;-65
2022/05/12 01:54:30;;;;;;;9.25;6.30;;;;;;;12.59;97.41;100389.19;4454349;32;20520;-65
2022/05/12 01:56:58;;;;;;;10.63;6.80;;;;;;;12.56;97.74;100389.25;4454430;32;20104;-65
2022/05/12 01:59:26;;;;;;;10.25;6.90;;;;;;;12.59;97.33;100384.78;4454413;32;20507;-65
2022/05/12 02:01:53;;;;;;;8.43;7.22;;;;;;;12.58;97.05;100390.97;4454346;32;20112;-65
2022/05/12 02:04:21;;;;;;;10.00;7.00;;;;;;;12.64;96.61;100390.81;4454392;32;20120;-65
2022/05/12 02:06:48;;;;;;;9.18;7.10;;;;;;;12.62;96.55;100382.06;4454215;32;20450;-65
2022/05/12 02:09:16;;;;;;;8.48;7.57;;;;;;;12.57;97.04;100383.91;4454498;32;20080;-65
2022/05/12 02:11:44;;;;;;;9.35;7.70;;;;;;;12.53;97.17;100379.59;4454405;32;20092;-65
2022/05/12 02:14:12;;;;;;;12.88;7.43;;;;;;;12.51;97.36;100373.50;4454584;32;20097;-65
2022/05/12 02:16:39;;;;;;;10.35;6.87;;;;;;;12.52;96.22;100371.72;4454380;32;20477;-65
2022/05/12 02:19:08;;;;;;;13.80;6.75;;;;;;;12.39;97.86;100371.06;4454165;32;20146;-65
2022/05/12 02:21:35;;;;;;;8.95;7.25;;;;;;;12.30;99.77;100366.00;4454195;32;20115;-65
2022/05/12 02:24:03;;;;;;;14.07;7.65;;;;;;;12.31;99.18;100370.38;4454072;32;20467;-65
2022/05/12 02:26:31;;;;;;;12.35;7.30;;;;;;;12.39;97.46;100363.16;4454183;32;20696;-65
2022/05/12 02:28:59;;;;;;;10.55;6.57;;;;;;;12.45;98.50;100365.69;4454444;32;20088;-65
2022/05/12 02:31:26;;;;;;;8.35;6.87;;;;;;;12.38;99.28;100371.97;4454218;32;20115;-65
2022/05/12 02:33:54;;;;;;;11.02;7.25;;;;;;;12.33;99.69;100366.78;4454125;32;20127;-65
2022/05/12 02:36:21;;;;;;;8.50;7.20;;;;;;;12.25;100.00;100371.34;4454115;32;20139;-65
2022/05/12 02:38:48;;;;;;;7.37;6.37;;;;;;;12.36;97.83;100368.50;4454003;32;20085;-65
2022/05/12 02:41:16;;;;;;;9.10;7.28;;;;;;;12.44;95.73;100378.03;4454294;32;20180;-65
2022/05/12 02:43:43;;;;;;;11.48;7.07;;;;;;;12.32;99.10;100380.88;4453986;32;20093;-64
2022/05/12 02:46:13;;;;;;;12.45;7.25;;;;;;;12.24;99.14;100374.88;4453948;32;20127;-65
2022/05/12 02:48:43;;;;;;;9.07;6.65;;;;;;;12.20;98.93;100373.22;4453936;32;20150;-65
2022/05/12 02:51:12;;;;;;;10.52;7.07;;;;;;;12.22;98.50;100381.97;4454038;32;20466;-65
2022/05/12 02:53:40;;;;;;;8.77;7.22;;;;;;;12.15;99.80;100375.03;4454008;32;20097;-65
2022/05/12 02:56:09;;;;;;;9.65;7.05;;;;;;;12.08;100.00;100378.69;4453979;32;20116;-65
2022/05/12 02:58:36;;;;;;;7.75;6.95;;;;;;;12.12;100.00;100377.75;4453849;32;20502;-65
2022/05/12 03:01:05;;;;;;;10.52;7.07;;;;;;;12.29;97.47;100380.06;4453793;32;20096;-65
2022/05/12 03:03:33;;;;;;;11.55;7.30;;;;;;;12.42;95.61;100377.16;4453815;32;20120;-65
2022/05/12 03:06:00;;;;;;;13.57;8.40;;;;;;;12.43;95.81;100380.69;4453734;32;20120;-65
2022/05/12 03:08:27;;;;;;;9.07;8.02;;;;;;;12.35;98.14;100388.75;4453661;32;20159;-65
2022/05/12 03:10:55;;;;;;;8.77;7.80;;;;;;;12.26;99.90;100390.69;4453526;32;20093;-65
2022/05/12 03:13:23;;;;;;;11.12;7.43;;;;;;;12.36;97.86;100384.34;4453576;32;20591;-65
2022/05/12 03:15:51;;;;;;;10.18;7.75;;;;;;;12.38;96.48;100387.84;4453610;32;20130;-65
2022/05/12 03:18:19;;;;;;;15.20;10.88;;;;;;;12.33;97.39;100395.88;4453484;32;20109;-65
2022/05/12 03:20:46;;;;;;;13.52;8.93;;;;;;;12.25;99.99;100391.59;4453440;32;20123;-65
2022/05/12 03:23:22;;;;;;;15.95;9.82;;;;;;;12.23;100.00;100394.28;4451660;32;20100;-65
2022/05/12 03:25:51;;;;;;;12.50;8.82;;;;;;;12.37;100.00;100394.91;4453474;32;20169;-65
2022/05/12 03:28:18;;;;;;;12.00;8.57;;;;;;;12.40;100.00;100402.78;4453377;32;20109;-65
2022/05/12 03:30:46;;;;;;;15.70;9.57;;;;;;;12.41;100.00;100396.56;4453802;32;20200;-65
2022/05/12 03:33:13;;;;;;;16.27;9.52;;;;;;;12.46;100.00;100396.47;4468933;32;20500;-65
2022/05/12 03:35:41;;;;;;;17.05;9.00;;;;;;;12.57;100.00;100396.28;4469080;32;20135;-65
2022/05/12 03:38:08;;;;;;;12.52;9.25;;;;;;;12.62;100.00;100400.56;4469650;32;20118;-65
2022/05/12 03:40:35;;;;;;;11.73;8.38;;;;;;;12.63;100.00;100404.09;4469688;32;20108;-65
2022/05/12 03:43:02;;;;;;;12.13;8.25;;;;;;;12.66;100.00;100393.44;4469751;32;20105;-65
2022/05/12 03:45:30;;;;;;;18.95;8.57;;;;;;;12.68;100.00;100408.38;4469221;32;20167;-65
2022/05/12 03:47:57;;;;;;;20.45;9.55;;;;;;;12.70;100.00;100405.69;4469026;32;20080;-65
2022/05/12 03:50:26;;;;;;;12.73;9.48;;;;;;;12.69;100.00;100401.31;4468736;32;20242;-64
2022/05/12 03:52:55;;;;;;;13.40;9.07;;;;;;;12.70;100.00;100400.41;4468105;32;20517;-65
2022/05/12 03:55:26;;;;;;;12.13;7.85;;;;;;;12.76;100.00;100402.94;4468843;32;20195;-65
2022/05/12 03:57:55;;;;;;;9.63;8.25;;;;;;;12.79;100.00;100405.53;4461882;32;20140;-65
2022/05/12 04:00:27;;;;;;;13.43;8.82;;;;;;;12.78;100.00;100398.47;4452418;32;20126;-65
2022/05/12 04:02:55;;;;;;;15.68;8.20;;;;;;;12.84;100.00;100401.00;4455550;32;20116;-65
2022/05/12 04:05:22;;;;;;;13.02;9.32;;;;;;;12.95;99.98;100406.06;4468389;32;20108;-65
2022/05/12 04:07:51;;;;;;;18.60;8.50;;;;;;;13.07;99.60;100410.22;4470440;32;20122;-65
2022/05/12 04:10:20;;;;;;;12.23;8.27;;;;;;;13.19;98.76;100411.72;4471178;32;20568;-65
2022/05/12 04:12:48;;;;;;;13.05;8.65;;;;;;;13.27;98.53;100408.03;4470372;32;20127;-65
2022/05/12 04:15:15;;;;;;;11.12;8.43;;;;;;;13.34;97.70;100409.63;4470862;32;20100;-65
2022/05/12 04:17:44;;;;;;;14.63;8.27;;;;;;;13.48;96.98;100413.75;4457096;32;20203;-65
2022/05/12 04:20:12;;;;;;;11.18;8.38;;;;;;;13.60;96.78;100416.09;4453070;32;75880;-65
2022/05/12 04:22:40;;;;;;;11.77;8.00;;;;;;;13.71;96.07;100416.72;4454654;32;20456;-65
2022/05/12 04:25:08;;;;;;;11.85;8.65;;;;;;;13.84;95.43;100420.78;4454313;32;20160;-65
2022/05/12 04:27:38;;;;;;;12.10;8.00;;;;;;;13.98;94.13;100423.09;4454930;32;20163;-65
2022/05/12 04:30:06;;;;;;;11.18;9.30;;;;;;;14.04;94.90;100417.66;4454955;32;20903;-65
2022/05/12 04:32:34;;;;;;;19.00;8.82;;;;;;;14.15;94.98;100427.09;4455134;32;20120;-65
2022/05/12 04:35:11;;;;;;;12.57;7.78;;;;;;;14.29;93.73;100422.31;4455028;32;20096;-65
2022/05/12 04:37:49;;;;;;;19.05;10.27;;;;;;;14.40;93.25;100428.19;4455068;32;20476;-65
2022/05/12 04:40:24;;;;;;;15.98;9.88;;;;;;;14.58;93.47;100438.31;4454896;32;20081;-65
2022/05/12 04:42:53;;;;;;;20.20;11.32;;;;;;;14.73;92.97;100433.50;4454843;32;20119;-65
2022/05/12 04:45:22;;;;;;;18.77;11.57;;;;;;;14.85;93.12;100442.94;4455025;32;20142;-65
2022/05/12 04:47:50;;;;;;;19.83;12.37;;;;;;;14.90;94.25;100446.31;4454819;32;20080;-65
2022/05/12 04:50:21;;;;;;;20.10;13.90;;;;;;;14.99;93.11;100446.06;4454841;32;20112;-65
2022/05/12 04:52:48;;;;;;;22.52;13.40;;;;;;;15.11;92.22;100445.69;4459804;32;20109;-65
2022/05/12 04:55:16;;;;;;;20.85;13.43;;;;;;;15.23;92.82;100447.09;4470436;32;20108;-65
2022/05/12 04:57:46;;;;;;;21.23;13.65;;;;;;;15.32;92.97;100448.59;4470306;32;20172;-65
2022/05/12 05:00:21;;;;;;;26.70;13.98;;;;;;;15.42;92.75;100456.25;4470543;32;20118;-65
2022/05/12 05:02:48;;;;;;;26.20;13.85;;;;;;;15.54;92.29;100447.88;4470137;32;20204;-65
2022/05/12 05:05:16;;;;;;;19.08;13.35;;;;;;;15.64;91.47;100452.91;4470169;32;20365;-65
2022/05/12 05:07:43;;;;;;;18.98;13.40;;;;;;;15.77;89.21;100456.97;4470195;32;20088;-65
2022/05/12 05:10:12;;;;;;;21.27;14.13;;;;;;;15.85;89.26;100456.72;4470165;32;20122;-65
2022/05/12 05:12:40;;;;;;;35.03;13.52;;;;;;;15.89;91.18;100453.03;4457104;32;20490;-65
2022/05/12 05:15:10;;;;;;;19.50;12.55;;;;;;;16.01;89.14;100455.31;4454544;32;20410;-65
2022/05/12 05:17:40;;;;;;;19.90;13.30;;;;;;;16.16;88.88;100451.25;4454639;32;20099;-65
2022/05/12 05:20:16;;;;;;;28.62;13.57;;;;;;;16.36;87.79;100461.19;4454320;32;20149;-65
2022/05/12 05:22:45;;;;;;;33.08;14.90;;;;;;;16.39;87.42;100453.13;4454238;32;20173;-65
2022/05/12 05:25:14;;;;;;;29.48;13.40;;;;;;;16.44;86.20;100453.84;4455143;32;20108;-65
2022/05/12 05:27:42;;;;;;;20.92;12.27;;;;;;;16.42;84.21;100461.00;4457736;32;20115;-65
2022/05/12 05:30:13;;;;;;;22.25;13.25;;;;;;;16.54;83.12;100459.69;4454528;32;20084;-65
2022/05/12 05:32:40;;;;;;;21.35;13.40;;;;;;;16.67;83.06;100459.19;4459016;32;20100;-65
2022/05/12 05:35:08;;;;;;;29.33;12.23;;;;;;;16.80;82.46;100457.00;4460723;32;20160;-65
2022/05/12 05:37:36;;;;;;;34.72;13.95;;;;;;;16.87;82.18;100455.00;4470545;32;20397;-66
2022/05/12 05:40:05;;;;;;;40.00;12.15;;;;;;;17.03;81.13;100463.25;4456225;32;20092;-65
2022/05/12 05:42:33;;;;;;;27.37;11.07;;;;;;;17.22;77.46;100463.47;4470498;32;20126;-66
2022/05/12 05:45:08;;;;;;;19.77;10.55;;;;;;;17.29;76.00;100464.97;4470007;32;20109;-65
2022/05/12 05:47:36;;;;;;;17.60;10.43;;;;;;;17.43;76.55;100470.63;4456687;32;20784;-65
2022/05/12 05:50:04;;;;;;;23.08;9.32;;;;;;;17.57;74.36;100464.75;4440054;32;20097;-65
2022/05/12 05:55:17;;;;;;;15.25;8.82;;;;;;;17.72;75.36;100463.28;4455303;32;20150;-66
2022/05/12 05:57:44;;;;;;;21.35;9.80;;;;;;;17.83;72.92;100464.59;4462571;32;20088;-65
2022/05/12 06:00:12;;;;;;;33.30;9.90;;;;;;;17.91;75.23;100467.84;4464184;32;20097;-65
2022/05/12 06:02:40;;;;;;;20.30;8.40;;;;;;;18.02;74.73;100461.19;4455004;32;20089;-65
2022/05/12 06:05:08;;;;;;;14.20;8.25;;;;;;;18.09;72.95;100471.56;4462769;32;20095;-65
2022/05/12 06:07:38;;;;;;;21.58;9.57;;;;;;;18.17;73.40;100468.56;4455173;32;20088;-65
2022/05/12 06:10:06;;;;;;;11.65;8.77;;;;;;;18.40;73.41;100470.22;4470604;32;20135;-65
2022/05/12 06:12:34;;;;;;;14.93;8.55;;;;;;;18.57;72.39;100470.38;4470327;32;20385;-65
2022/05/12 06:15:02;;;;;;;13.50;8.95;;;;;;;18.67;71.77;100472.66;4470432;32;20122;-65
2022/05/12 06:17:29;;;;;;;14.52;8.68;;;;;;;18.78;71.87;100475.75;4470266;32;20112;-66
2022/05/12 06:19:57;;;;;;;10.45;7.35;;;;;;;18.82;72.12;100480.00;4469674;32;20097;-65
2022/05/12 06:22:25;;;;;;;11.55;7.10;;;;;;;18.92;70.36;100470.66;4469785;32;20092;-66
2022/05/12 06:24:52;;;;;;;7.75;5.93;;;;;;;18.96;69.47;100471.37;4470223;32;20103;-65
2022/05/12 06:27:19;;;;;;;33.60;6.30;;;;;;;19.10;67.69;100468.94;4468882;32;20092;-65
2022/05/12 06:29:47;;;;;;;16.58;5.60;;;;;;;19.17;66.72;100469.53;4470388;32;20092;-65
2022/05/12 06:32:17;;;;;;;10.15;6.05;;;;;;;19.38;65.88;100465.88;4470219;32;20096;-65
2022/05/12 06:34:46;;;;;;;14.02;6.43;;;;;;;19.45;65.33;100461.09;4466986;32;20110;-65
2022/05/12 06:37:13;;;;;;;11.88;5.32;;;;;;;19.56;65.08;100462.31;4462468;32;20095;-66
2022/05/12 06:39:41;;;;;;;9.65;6.45;;;;;;;19.62;64.91;100463.84;4461462;32;20081;-65
2022/05/12 06:42:08;;;;;;;15.75;6.82;;;;;;;19.64;63.03;100461.13;4454569;32;20097;-65
2022/05/12 06:44:44;;;;;;;14.43;5.87;;;;;;;19.77;63.61;100463.13;4454866;32;20084;-65
2022/05/12 06:47:13;;;;;;;10.63;5.28;;;;;;;19.93;62.78;100470.38;4469672;32;20132;-65
2022/05/12 06:49:41;;;;;;;8.77;5.07;;;;;;;20.09;62.86;100459.81;4455898;32;20093;-65
2022/05/12 06:52:09;;;;;;;17.77;5.43;;;;;;;20.22;60.51;100460.94;4454434;32;20128;-65
2022/05/12 06:54:38;;;;;;;16.35;5.82;;;;;;;20.32;59.77;100470.22;4454666;32;20175;-65
2022/05/12 06:57:06;;;;;;;12.00;5.72;;;;;;;20.40;59.11;100473.38;4454417;32;20088;-65
2022/05/12 06:59:42;;;;;;;14.23;5.53;;;;;;;20.55;57.89;100476.22;4455792;32;20716;-65
2022/05/12 07:02:10;;;;;;;16.15;5.70;;;;;;;20.72;57.77;100479.75;4455902;32;20131;-65
2022/05/12 07:04:38;;;;;;;14.35;5.97;;;;;;;20.82;57.78;100479.28;4438931;32;20204;-65
2022/05/12 07:07:05;;;;;;;11.30;6.40;;;;;;;20.82;57.34;100474.78;4458688;32;20536;-66
2022/05/12 07:09:33;;;;;;;13.52;5.90;;;;;;;20.75;57.27;100468.03;4467699;32;20143;-65
2022/05/12 07:12:00;;;;;;;23.83;5.45;;;;;;;20.85;57.01;100480.00;4468051;32;20158;-65
2022/05/12 07:14:27;;;;;;;12.88;6.10;;;;;;;20.99;57.02;100473.91;4468982;32;20770;-65
2022/05/12 07:16:54;;;;;;;9.63;5.80;;;;;;;21.04;56.65;100476.31;4468270;32;20114;-65
2022/05/12 07:19:21;;;;;;;31.33;6.22;;;;;;;21.05;55.74;100476.22;4467331;32;20097;-65
2022/05/12 07:27:20;;;;;;;15.57;5.57;;;;;;;21.24;55.62;100470.75;4465862;32;20765;-65
2022/05/12 07:29:47;;;;;;;10.73;6.43;;;;;;;21.44;56.00;100473.22;4465715;32;20728;-65
2022/05/12 07:32:15;;;;;;;11.55;6.20;;;;;;;21.46;56.38;100468.63;4465791;32;20123;-65
2022/05/12 07:34:42;;;;;;;10.45;5.82;;;;;;;21.58;56.40;100460.84;4452229;32;20108;-65
2022/05/12 07:37:09;;;;;;;10.07;5.80;;;;;;;21.73;56.05;100465.34;4468100;32;20108;-66
2022/05/12 07:39:37;;;;;;;12.13;5.35;;;;;;;21.78;56.12;100465.09;4467496;32;20117;-66
2022/05/12 07:42:04;;;;;;;17.00;6.20;;;;;;;21.86;56.42;100466.38;4468937;32;20463;-66
2022/05/12 07:44:32;;;;;;;5.97;5.37;;;;;;;22.17;55.49;100456.59;4470313;32;20160;-66
2022/05/12 07:47:05;;;;;;;10.70;5.65;;;;;;;22.21;54.41;100463.50;4470753;32;20084;-66
2022/05/12 07:49:36;;;;;;;7.68;5.47;;;;;;;22.25;54.34;100465.03;4470783;32;20092;-66
2022/05/12 07:52:05;;;;;;;12.15;6.68;;;;;;;22.53;54.25;100456.22;4470835;32;20119;-66
2022/05/12 07:54:33;;;;;;;8.52;5.70;;;;;;;22.65;54.26;100460.84;4455317;32;20165;-66
2022/05/12 07:57:01;;;;;;;8.90;5.30;;;;;;;22.91;53.98;100461.06;4454917;32;20111;-66
2022/05/12 07:59:29;;;;;;;7.40;5.00;;;;;;;23.01;52.46;100456.88;4454924;32;20511;-66
2022/05/12 08:01:58;;;;;;;13.05;5.57;;;;;;;23.14;49.86;100454.25;4455064;32;20175;-66
2022/05/12 08:04:26;;;;;;;6.90;5.20;;;;;;;23.09;51.73;100465.31;4454993;32;20088;-66
2022/05/12 08:06:54;;;;;;;10.63;5.78;;;;;;;23.38;52.09;100457.22;4455000;32;20081;-66
2022/05/12 08:09:22;;;;;;;21.90;5.80;;;;;;;23.71;52.08;100464.09;4455058;32;20396;-66
2022/05/12 08:11:49;;;;;;;17.10;6.30;;;;;;;23.99;51.89;100461.34;4454947;32;20153;-66
2022/05/12 08:14:16;;;;;;;7.87;5.93;;;;;;;24.29;50.58;100457.53;4455026;32;20127;-66
2022/05/12 08:16:43;;;;;;;9.50;5.60;;;;;;;24.32;50.11;100465.41;4455199;32;20085;-66
2022/05/12 08:19:11;;;;;;;8.18;5.32;;;;;;;24.36;49.28;100468.78;4455716;32;20583;-66
2022/05/12 08:21:38;;;;;;;9.82;5.18;;;;;;;24.49;49.15;100459.78;4455547;32;20088;-66
2022/05/12 08:24:05;;;;;;;8.23;5.68;;;;;;;24.44;50.34;100469.12;4454930;32;20127;-66
2022/05/12 08:26:33;;;;;;;6.82;4.82;;;;;;;24.49;48.70;100467.00;4454901;32;20089;-66
2022/05/12 08:29:00;;;;;;;10.68;5.37;;;;;;;24.47;48.65;100467.09;4454717;32;20084;-66
2022/05/12 08:31:30;;;;;;;13.55;5.45;;;;;;;24.75;48.49;100473.28;4455038;32;20499;-66
2022/05/12 08:33:59;;;;;;;13.50;5.20;;;;;;;24.78;48.72;100457.75;4455004;32;20218;-66
2022/05/12 08:36:27;;;;;;;10.23;4.90;;;;;;;24.92;47.94;100467.56;4454872;32;20105;-66
2022/05/12 08:38:55;;;;;;;10.73;4.62;;;;;;;24.97;46.66;100453.75;4454973;32;20142;-66
2022/05/12 08:41:51;;;;;;;15.95;5.07;;;;;;;25.19;46.64;100469.28;4454729;32;20089;-66
2022/05/12 08:44:21;;;;;;;8.07;4.47;;;;;;;25.55;47.88;100473.00;4454926;32;20894;-66
2022/05/12 08:47:00;;;;;;;16.20;4.95;;;;;;;25.24;44.61;100470.69;4454902;32;20423;-66
2022/05/12 08:49:27;;;;;;;14.87;4.78;;;;;;;25.44;45.58;100477.37;4454531;32;20084;-66
2022/05/12 08:52:25;;;;;;;14.43;5.47;;;;;;;25.63;44.96;100473.31;4454742;32;20506;-66
2022/05/12 08:55:04;;;;;;;14.82;4.72;;;;;;;25.45;44.36;100473.69;4454810;32;20093;-66
2022/05/12 08:57:40;;;;;;;25.75;5.75;;;;;;;25.45;44.33;100479.09;4454758;32;20069;-66
2022/05/12 09:00:12;;;;;;;11.90;5.05;;;;;;;25.78;44.48;100466.78;4454710;32;20119;-66
2022/05/12 09:03:07;;;;;;;8.35;4.57;;;;;;;26.02;43.72;100466.84;4455290;32;20148;-66
2022/05/12 09:05:42;;;;;;;13.48;5.00;;;;;;;26.18;43.46;100469.22;4447017;32;20462;-66
2022/05/12 09:08:27;;;;;;;18.50;5.10;;;;;;;26.30;42.42;100462.03;4454881;32;20092;-66
2022/05/12 09:11:10;;;;;;;12.75;4.68;;;;;;;26.32;43.04;100470.87;4454688;32;20123;-66
2022/05/12 09:13:46;;;;;;;7.35;4.68;;;;;;;26.61;42.89;100463.28;4453797;32;20082;-66
2022/05/12 09:16:25;;;;;;;4.95;4.20;;;;;;;26.86;41.26;100465.78;4454784;32;20717;-66
2022/05/12 09:18:53;;;;;;;8.15;4.37;;;;;;;26.90;42.02;100469.97;4454427;32;20084;-66
2022/05/12 09:21:27;;;;;;;11.02;4.30;;;;;;;26.80;41.99;100471.66;4454756;32;20088;-66
2022/05/12 09:23:56;;;;;;;8.48;5.10;;;;;;;26.97;41.09;100475.75;4454555;32;20093;-66
2022/05/12 09:27:05;;;;;;;9.23;4.35;;;;;;;27.08;40.87;100472.19;4440022;32;20100;-66
2022/05/12 09:29:44;;;;;;;6.05;4.50;;;;;;;27.06;41.48;100476.84;4454661;32;20153;-66
2022/05/12 09:32:11;;;;;;;13.20;4.60;;;;;;;27.09;41.55;100480.16;4454683;32;20080;-66
2022/05/12 09:34:46;;;;;;;12.43;4.45;;;;;;;26.76;42.05;100477.44;4454499;32;20160;-66
2022/05/12 09:37:13;;;;;;;7.80;4.20;;;;;;;26.70;42.33;100479.62;4454543;32;20089;-66
2022/05/12 09:40:11;;;;;;;11.20;4.95;;;;;;;26.94;42.12;100476.84;4454218;32;20185;-66
2022/05/12 09:42:42;;;;;;;12.40;4.45;;;;;;;27.50;41.36;100472.47;4443517;32;20077;-66
2022/05/12 09:45:15;;;;;;;8.38;4.50;;;;;;;27.57;40.53;100473.69;4454443;32;20513;-66
2022/05/12 09:47:43;;;;;;;14.02;4.82;;;;;;;27.43;40.60;100469.38;4439576;32;20628;-66
2022/05/12 09:50:23;;;;;;;9.05;4.60;;;;;;;27.62;40.50;100469.59;4454105;32;20081;-66
2022/05/12 09:52:54;;;;;;;12.48;4.20;;;;;;;27.56;41.93;100471.94;4454410;32;20444;-66
2022/05/12 09:55:29;;;;;;;12.95;4.90;;;;;;;27.82;40.87;100459.03;4454168;32;20429;-66
2022/05/12 09:57:57;;;;;;;9.88;4.55;;;;;;;28.02;40.98;100457.34;4453966;32;20097;-66
2022/05/12 10:00:34;;;;;;;10.30;4.97;;;;;;;28.23;40.29;100465.50;4454205;32;20478;-66
2022/05/12 10:09:13;;;;;;;7.28;3.85;;;;;;;29.02;38.11;100442.41;4454290;32;20127;-66
2022/05/12 10:12:00;;;;;;;17.60;4.43;;;;;;;29.29;37.31;100459.94;4454563;32;20145;-66
2022/05/12 10:14:38;;;;;;;12.27;4.35;;;;;;;29.40;37.16;100445.41;4454220;32;20134;-66
2022/05/12 10:17:34;;;;;;;16.20;4.55;;;;;;;29.27;37.93;100442.94;4454108;32;20415;-66
2022/05/12 10:20:08;;;;;;;8.90;4.65;;;;;;;29.54;37.27;100437.75;4449090;32;20126;-66
2022/05/12 10:22:46;;;;;;;21.30;5.00;;;;;;;29.32;37.54;100439.81;4454040;32;20150;-66
2022/05/12 10:25:21;;;;;;;11.77;4.25;;;;;;;29.73;36.55;100430.69;4454089;32;20149;-66
2022/05/12 10:28:11;;;;;;;9.07;3.85;;;;;;;30.24;35.89;100421.41;4454254;32;20125;-66
2022/05/12 10:30:46;;;;;;;11.15;4.45;;;;;;;30.53;35.12;100425.97;4454046;32;20144;-66
2022/05/12 10:33:27;;;;;;;14.80;4.40;;;;;;;30.27;35.36;100426.56;4454331;32;20130;-66
2022/05/12 10:36:33;;;;;;;18.10;4.07;;;;;;;30.10;34.41;100430.84;4454128;32;20097;-66
2022/05/12 10:39:09;;;;;;;11.57;4.40;;;;;;;30.55;33.94;100423.97;4444496;32;20143;-66
2022/05/12 10:41:46;;;;;;;10.55;4.20;;;;;;;30.26;34.43;100413.13;4454076;32;20088;-66
2022/05/12 10:44:14;;;;;;;11.38;4.37;;;;;;;30.76;34.20;100413.78;4454774;32;20077;-66
2022/05/12 10:46:58;;;;;;;10.90;4.03;;;;;;;30.62;33.19;100419.66;4454368;32;20211;-66
2022/05/12 10:49:48;;;;;;;9.55;4.20;;;;;;;30.80;32.63;100417.06;4452205;32;20112;-66
2022/05/12 10:52:50;;;;;;;5.68;3.83;;;;;;;30.92;32.05;100422.19;4455148;32;20104;-67
2022/05/12 10:55:41;;;;;;;9.27;3.65;;;;;;;30.72;32.00;100418.62;4469470;32;20113;-67
2022/05/12 10:58:20;;;;;;;7.25;4.12;;;;;;;31.05;32.46;100420.97;4429290;32;20080;-67
2022/05/12 11:00:48;;;;;;;10.93;3.50;;;;;;;31.56;32.90;100416.87;4469072;32;20092;-67
2022/05/12 11:03:23;;;;;;;9.98;4.68;;;;;;;32.06;31.65;100421.84;4469171;32;20095;-67
2022/05/12 11:05:58;;;;;;;12.07;4.20;;;;;;;31.78;32.08;100421.88;4469166;32;20077;-67
2022/05/12 11:08:34;;;;;;;9.53;4.20;;;;;;;31.37;32.12;100415.12;4468678;32;20178;-67
2022/05/12 11:11:11;;;;;;;14.02;4.57;;;;;;;31.57;32.24;100408.56;4461529;32;20172;-67
2022/05/12 11:13:45;;;;;;;8.27;4.28;;;;;;;31.62;32.37;100402.63;4459553;32;20123;-67
2022/05/12 11:16:18;;;;;;;7.37;3.62;;;;;;;31.18;32.81;100406.03;4455188;32;20141;-66
2022/05/12 11:19:02;;;;;;;12.10;4.18;;;;;;;30.73;33.15;100398.56;4456741;32;20104;-67
2022/05/12 11:21:30;;;;;;;12.27;4.20;;;;;;;31.62;32.24;100381.69;4455690;32;20122;-66
2022/05/12 11:24:16;;;;;;;5.28;4.20;;;;;;;32.31;31.65;100388.31;4455603;32;20167;-67
2022/05/12 11:26:57;;;;;;;4.85;3.60;;;;;;;33.45;30.42;100398.19;4456160;32;20072;-67
2022/05/12 11:29:54;;;;;;;4.32;3.50;;;;;;;32.94;29.86;100394.56;4455915;32;20085;-67
2022/05/12 11:33:02;;;;;;;4.62;3.95;;;;;;;34.39;28.91;100386.06;4421431;32;20108;-67
2022/05/12 11:35:35;;;;;;;7.35;4.32;;;;;;;35.70;26.83;100381.00;4470552;32;20183;-67
2022/05/12 11:38:06;;;;;;;7.78;3.92;;;;;;;35.45;26.49;100377.53;4455768;32;20114;-67
2022/05/12 11:40:49;;;;;;;6.60;3.50;;;;;;;36.56;25.65;100368.81;4455660;32;20136;-67
2022/05/12 11:46:56;;;;;;;12.43;4.12;;;;;;;36.56;24.34;100363.34;4462149;32;20107;-66
2022/05/12 11:49:40;;;;;;;20.17;4.68;;;;;;;37.02;25.56;100360.44;4461875;32;20707;-66
2022/05/12 11:52:13;;;;;;;13.27;3.95;;;;;;;37.16;23.55;100372.44;4455804;32;20218;-66
2022/05/12 11:54:51;;;;;;;9.23;3.83;;;;;;;37.78;23.68;100365.59;4455830;32;20092;-67
2022/05/12 11:57:25;;;;;;;7.85;4.10;;;;;;;38.47;23.14;100356.69;4450324;32;20136;-67